createdAt,value
2022-10-18T00:05:24.877Z,1023
2022-10-18T00:15:24.748Z,1023
2022-10-18T00:25:24.863Z,1023
2022-10-18T00:35:25.373Z,1023
2022-10-18T00:45:25.017Z,1023
2022-10-18T00:55:25.079Z,1023
2022-10-18T01:05:24.852Z,1023
2022-10-18T01:15:24.954Z,1023
2022-10-18T01:25:24.865Z,1023
2022-10-18T01:35:24.934Z,1023
2022-10-18T01:45:24.855Z,1023
2022-10-18T01:55:24.922Z,1023
2022-10-18T02:05:24.859Z,1023
2022-10-18T02:15:24.929Z,1023
2022-10-18T02:25:25.048Z,1023
2022-10-18T02:35:24.919Z,1024
2022-10-18T02:45:25.067Z,1024
2022-10-18T02:55:24.961Z,1024
2022-10-18T03:05:25.065Z,1024
2022-10-18T03:15:24.937Z,1024
2022-10-18T03:25:25.052Z,1024
2022-10-18T03:35:24.929Z,1024
2022-10-18T03:45:27.491Z,1024
2022-10-18T03:55:25.138Z,1024
2022-10-18T04:05:25.065Z,1024
2022-10-18T04:15:25.128Z,1024
2022-10-18T04:25:25.066Z,1024
2022-10-18T04:35:25.128Z,1024
2022-10-18T04:45:25.059Z,1025
2022-10-18T04:55:25.130Z,1025
2022-10-18T05:05:29.797Z,1025
2022-10-18T05:15:25.105Z,1025
2022-10-18T05:25:25.235Z,1025
2022-10-18T05:35:25.125Z,1025
2022-10-18T05:45:25.243Z,1025
2022-10-18T05:55:25.100Z,1025
2022-10-18T06:05:25.222Z,1025
2022-10-18T06:15:25.124Z,1025
2022-10-18T06:25:25.243Z,1025
2022-10-18T06:35:25.121Z,1025
2022-10-18T06:45:25.228Z,1025
2022-10-18T06:55:25.296Z,1025
2022-10-18T07:05:25.274Z,1025
2022-10-18T07:15:25.390Z,1025
2022-10-18T07:25:27.055Z,1025
2022-10-18T07:35:25.290Z,1025
2022-10-18T07:45:25.306Z,1025
2022-10-18T07:55:25.281Z,1025
2022-10-18T08:05:25.258Z,1025
2022-10-18T08:15:25.302Z,1026
2022-10-18T08:25:25.520Z,1026
2022-10-18T08:35:25.273Z,1026
2022-10-18T08:45:37.631Z,1026
2022-10-18T08:55:25.279Z,1026
2022-10-18T09:05:25.419Z,1026
2022-10-18T09:15:25.299Z,1026
2022-10-18T09:25:25.618Z,1027
2022-10-18T09:35:25.522Z,1027
2022-10-18T09:45:25.598Z,1027
2022-10-18T09:55:25.874Z,1027
2022-10-18T10:05:25.547Z,1027
2022-10-18T10:15:26.224Z,1028
2022-10-18T10:25:25.651Z,1028
2022-10-18T10:35:35.447Z,1028
2022-10-18T10:45:25.582Z,1028
2022-10-18T10:55:34.710Z,1029
2022-10-18T11:05:25.444Z,1029
2022-10-18T11:15:25.524Z,1030
2022-10-18T11:25:25.426Z,1031
2022-10-18T11:35:25.507Z,1031
2022-10-18T11:45:25.642Z,1031
2022-10-18T11:55:27.591Z,1031
2022-10-18T12:05:25.641Z,1031
2022-10-18T12:15:25.505Z,1031
2022-10-18T12:25:25.699Z,1031
2022-10-18T12:35:25.469Z,1031
2022-10-18T12:45:25.593Z,1032
2022-10-18T12:55:25.506Z,1032
2022-10-18T13:05:33.577Z,1032
2022-10-18T13:15:27.047Z,1032
2022-10-18T13:25:25.538Z,1032
2022-10-18T13:35:25.630Z,1032
2022-10-18T13:45:25.559Z,1032
2022-10-18T13:55:25.654Z,1032
2022-10-18T14:05:25.922Z,1032
2022-10-18T14:15:25.737Z,1032
2022-10-18T14:25:25.674Z,1032
2022-10-18T14:35:33.687Z,1032
2022-10-18T14:45:25.658Z,1031
2022-10-18T14:55:25.731Z,1031
2022-10-18T15:05:25.659Z,1031
2022-10-18T15:15:25.736Z,1031
2022-10-18T15:25:28.045Z,1030
2022-10-18T15:35:26.446Z,1030
2022-10-18T15:45:25.900Z,1030
2022-10-18T15:55:25.968Z,1030
2022-10-18T16:05:26.109Z,1030
2022-10-18T16:15:25.893Z,1030
2022-10-18T16:25:25.888Z,1030
2022-10-18T16:35:26.188Z,1030
2022-10-18T16:45:25.957Z,1029
2022-10-18T16:55:26.027Z,1029
2022-10-18T17:05:25.966Z,1029
2022-10-18T17:15:26.037Z,1029
2022-10-18T17:25:25.899Z,1029
2022-10-18T17:35:26.639Z,1028
2022-10-18T17:45:27.050Z,1028
2022-10-18T17:55:26.071Z,1028
2022-10-18T18:05:25.999Z,1028
2022-10-18T18:15:25.955Z,1028
2022-10-18T18:25:25.925Z,1028
2022-10-18T18:35:26.071Z,1028
2022-10-18T18:45:26.184Z,1028
2022-10-18T18:55:25.904Z,1028
2022-10-18T19:05:26.043Z,1028
2022-10-18T19:15:25.982Z,1028
2022-10-18T19:25:26.948Z,1028
2022-10-18T19:35:26.019Z,1028
2022-10-18T19:45:26.065Z,1028
2022-10-18T19:55:25.997Z,1028
2022-10-18T20:05:26.204Z,1028
2022-10-18T20:15:26.013Z,1028
2022-10-18T20:25:26.727Z,1028
2022-10-18T20:35:26.166Z,1028
2022-10-18T20:45:26.263Z,1028
2022-10-18T20:55:26.033Z,1028
2022-10-18T21:05:26.117Z,1027
2022-10-18T21:15:26.329Z,1027
2022-10-18T21:25:26.122Z,1027
2022-10-18T21:35:26.186Z,1027
2022-10-18T21:45:26.124Z,1027
2022-10-18T21:55:26.188Z,1027
2022-10-18T22:05:26.144Z,1027
2022-10-18T22:15:26.271Z,1027
2022-10-18T22:25:26.118Z,1027
2022-10-18T22:35:26.207Z,1027
2022-10-18T22:45:26.090Z,1027
2022-10-18T22:55:26.160Z,1027
2022-10-18T23:05:26.297Z,1027
2022-10-18T23:15:26.225Z,1027
2022-10-18T23:25:26.637Z,1026
2022-10-18T23:35:26.168Z,1026
2022-10-18T23:45:26.291Z,1026
2022-10-18T23:55:26.179Z,1026
